LDPP weather

CLOSED Pula Seaplane Terminal
Pula, Istria County, Croatia

Public forecast

Using degrees Celsius for public forecast. Weather courtesy of forecast.io.

METAR (pilot weather report)

Closest report is Pula Airport, 3.4 nm (6.3 km) ENE. Retrieved 2019/07/18 00:30 UTC (4 minutes ago):

LDPL 180030Z 08004KT CAVOK 16/12 Q1011

TAF (pilot weather forecast)

Forecast is more than 12 hours old.

Closest forecast is Pula Airport, 3.4 nm (6.3 km) ENE. Retrieved 2019/07/17 00:25 UTC (1 day ago):

TAF LDPL 172325Z 1800/1900 VRB02KT CAVOK TX28/1812Z TN17/1803Z TEMPO 1812/1818 27008KT